Terminal Aerodrome Forecast
Issued by NWS

Home | Current Version | Previous Version | Text Only | Print | Product List | Glossary On
Versions: 1 2 3 4 5 6 7 8 9 10 11 12 13 14 15 16 17
000
FTUS41 KBTV 201100
TAFSLK
TAF
KSLK 201120Z 2012/2112 23005KT P6SM VCSH BKN035 OVC100
      TEMPO 2012/2014 BKN028
     FM201700 22007KT P6SM SCT030 OVC080
     FM210400 21004KT P6SM -SHRA SCT018 OVC028=

USA.gov is the U.S. government's official web portal to all federal, state and local government web resources and services.